Time;durP1;ratioP1;P1;durP2;ratioP2;P2;SDS_P1;SDS_P2;PMS_P1;PMS_P2;Temp;Humidity;BMP_temperature;BMP_pressure;BME280_temperature;BME280_humidity;BME280_pressure;Samples;Min_cycle;Max_cycle;Signal;HPM_P1;HPM_P2
2022/12/25 00:02:00;;;;;;;112.82;35.40;;;5.40;99.90;;;;;;5122147;27;20444;-47
2022/12/25 00:04:26;;;;;;;130.02;37.97;;;5.50;99.90;;;;;;5114502;27;20895;-50
2022/12/25 00:06:51;;;;;;;119.60;38.40;;;5.40;99.90;;;;;;5115797;27;20051;-46
2022/12/25 00:09:17;;;;;;;100.65;35.92;;;5.30;99.90;;;;;;5114541;27;20482;-50
2022/12/25 00:11:42;;;;;;;124.80;36.58;;;5.50;99.90;;;;;;5079080;28;20126;-49
2022/12/25 00:14:08;;;;;;;113.40;36.10;;;5.40;99.90;;;;;;5114100;27;20046;-49
2022/12/25 00:16:34;;;;;;;115.90;35.08;;;5.30;99.90;;;;;;5096954;28;20536;-47
2022/12/25 00:19:00;;;;;;;117.18;35.50;;;5.40;99.90;;;;;;5079495;28;20159;-51
2022/12/25 00:21:26;;;;;;;116.57;35.67;;;5.20;99.90;;;;;;5115114;27;20122;-50
2022/12/25 00:23:53;;;;;;;105.78;35.10;;;5.20;99.90;;;;;;5117949;27;20371;-48
2022/12/25 00:26:19;;;;;;;110.00;35.47;;;5.40;99.90;;;;;;5105192;28;20063;-50
2022/12/25 00:28:45;;;;;;;112.68;34.85;;;5.30;99.90;;;;;;5113125;27;20095;-51
2022/12/25 00:31:15;;;;;;;119.50;35.35;;;5.40;99.90;;;;;;5124308;27;20059;-48
2022/12/25 00:33:42;;;;;;;108.53;36.13;;;5.40;99.90;;;;;;5119457;27;20298;-51
2022/12/25 00:36:10;;;;;;;106.68;37.03;;;5.20;99.90;;;;;;5123495;27;20039;-50
2022/12/25 00:38:37;;;;;;;103.88;34.97;;;5.20;99.90;;;;;;5115728;27;20047;-46
2022/12/25 00:41:11;;;;;;;113.28;35.78;;;5.40;99.90;;;;;;5127048;27;20060;-51
2022/12/25 00:43:37;;;;;;;101.55;33.80;;;5.20;99.90;;;;;;5121871;27;20134;-50
2022/12/25 00:46:05;;;;;;;113.20;35.15;;;5.40;99.90;;;;;;5126487;27;20051;-47
2022/12/25 00:48:32;;;;;;;111.93;35.85;;;5.40;99.90;;;;;;5118941;27;20179;-52
2022/12/25 00:51:00;;;;;;;111.88;34.88;;;5.50;99.90;;;;;;5118467;27;20047;-50
2022/12/25 00:53:27;;;;;;;112.88;36.97;;;5.30;99.90;;;;;;5100325;27;20113;-50
2022/12/25 00:55:55;;;;;;;112.55;35.38;;;5.50;99.90;;;;;;5118207;27;20047;-52
2022/12/25 00:58:21;;;;;;;98.90;35.72;;;5.30;99.90;;;;;;5118804;27;20283;-47
2022/12/25 01:00:48;;;;;;;111.10;35.03;;;5.30;99.90;;;;;;5118912;27;20047;-50
2022/12/25 01:03:15;;;;;;;95.15;32.33;;;5.50;99.90;;;;;;5108296;27;20130;-49
2022/12/25 01:05:41;;;;;;;112.43;34.95;;;5.50;99.90;;;;;;5123035;27;20058;-53
2022/12/25 01:08:07;;;;;;;108.43;33.75;;;5.40;99.90;;;;;;5119189;27;20558;-49
2022/12/25 01:10:33;;;;;;;104.85;35.75;;;5.40;99.90;;;;;;5132791;27;20054;-51
2022/12/25 01:12:58;;;;;;;108.90;34.28;;;5.50;99.90;;;;;;5127379;27;20522;-47
2022/12/25 01:15:24;;;;;;;114.32;35.78;;;5.20;99.90;;;;;;5125681;27;20203;-47
2022/12/25 01:17:50;;;;;;;116.03;33.83;;;5.50;99.90;;;;;;5139471;27;20130;-51
2022/12/25 01:20:17;;;;;;;110.78;35.22;;;5.50;99.90;;;;;;5125137;27;20039;-49
2022/12/25 01:22:43;;;;;;;105.38;35.15;;;5.40;99.90;;;;;;5130276;27;20047;-48
2022/12/25 01:25:11;;;;;;;124.65;37.47;;;5.40;99.90;;;;;;5131406;27;20423;-50
2022/12/25 01:27:37;;;;;;;113.22;35.80;;;5.50;99.90;;;;;;5126365;27;20046;-45
2022/12/25 01:30:04;;;;;;;107.88;37.28;;;5.70;99.90;;;;;;5124414;27;20082;-47
2022/12/25 01:32:30;;;;;;;118.13;37.20;;;5.50;99.90;;;;;;5118603;27;20046;-47
2022/12/25 01:34:56;;;;;;;93.28;36.25;;;5.60;99.90;;;;;;5117409;27;20051;-47
2022/12/25 01:37:23;;;;;;;109.43;37.88;;;5.70;99.90;;;;;;5118642;27;20054;-46
2022/12/25 01:39:49;;;;;;;99.65;35.25;;;5.90;99.90;;;;;;5099062;27;20055;-49
2022/12/25 01:42:17;;;;;;;103.82;36.72;;;5.80;99.90;;;;;;5118030;27;20187;-51
2022/12/25 01:44:45;;;;;;;111.55;36.83;;;6.00;99.90;;;;;;5117565;27;20531;-51
2022/12/25 01:47:12;;;;;;;100.15;38.58;;;6.00;99.90;;;;;;5118278;27;20050;-48
2022/12/25 01:49:40;;;;;;;106.90;37.05;;;5.80;99.90;;;;;;5101307;27;20497;-50
2022/12/25 01:52:12;;;;;;;95.78;36.47;;;5.90;99.90;;;;;;5128710;27;20097;-45
2022/12/25 01:54:52;;;;;;;99.90;38.42;;;6.00;99.90;;;;;;5098365;27;20166;-52
2022/12/25 01:57:29;;;;;;;112.88;39.95;;;6.00;99.90;;;;;;5111826;27;20158;-50
2022/12/25 01:59:56;;;;;;;114.70;39.67;;;6.00;99.90;;;;;;5107221;27;20813;-45
2022/12/25 02:02:22;;;;;;;101.85;37.92;;;6.20;99.90;;;;;;5137921;27;20139;-48
2022/12/25 02:05:11;;;;;;;115.22;38.67;;;6.30;99.90;;;;;;5124861;27;20595;-47
2022/12/25 02:07:40;;;;;;;110.07;38.92;;;6.20;99.90;;;;;;5138404;27;20049;-53
2022/12/25 02:10:10;;;;;;;111.88;42.35;;;6.20;99.90;;;;;;5109500;27;20112;-45
2022/12/25 02:12:36;;;;;;;99.97;38.47;;;6.40;99.90;;;;;;5117694;27;20053;-47
2022/12/25 02:15:15;;;;;;;99.00;38.65;;;6.30;99.90;;;;;;5117225;27;20067;-48
2022/12/25 02:18:02;;;;;;;114.63;39.95;;;6.40;99.90;;;;;;5117136;27;20137;-46
2022/12/25 02:20:56;;;;;;;107.57;40.45;;;6.60;99.90;;;;;;5120820;27;20183;-52
2022/12/25 02:23:55;;;;;;;89.97;38.65;;;6.50;99.90;;;;;;5119179;27;20090;-49
2022/12/25 02:26:44;;;;;;;99.22;40.17;;;6.50;99.90;;;;;;5117320;27;20104;-50
2022/12/25 02:29:28;;;;;;;105.82;41.15;;;6.50;99.90;;;;;;5117144;27;20051;-49
2022/12/25 02:32:41;;;;;;;114.18;41.05;;;6.40;99.90;;;;;;5117213;27;20644;-45
2022/12/25 02:35:26;;;;;;;100.43;37.65;;;6.70;99.90;;;;;;5072818;28;20781;-52
2022/12/25 02:38:06;;;;;;;91.53;39.05;;;6.60;99.90;;;;;;5072955;28;20161;-46
2022/12/25 02:40:38;;;;;;;89.82;38.97;;;6.50;99.90;;;;;;5060389;28;20461;-47
2022/12/25 03:08:29;;;;;;;97.22;39.97;;;7.00;99.90;;;;;;5071884;28;20087;-50
2022/12/25 03:13:49;;;;;;;97.90;36.25;;;7.00;99.90;;;;;;5121689;27;20083;-50
2022/12/25 03:27:40;;;;;;;104.97;40.30;;;6.80;99.90;;;;;;5052391;28;20489;-52
2022/12/25 03:33:04;;;;;;;103.05;38.53;;;6.70;99.90;;;;;;5071505;28;20058;-51
2022/12/25 03:36:03;;;;;;;98.45;41.00;;;6.90;99.90;;;;;;5071848;28;20090;-50
2022/12/25 03:49:50;;;;;;;101.30;41.70;;;6.90;99.90;;;;;;5011593;28;20100;-51
2022/12/25 04:37:46;;;;;;;99.05;39.03;;;7.30;99.90;;;;;;5128042;27;20055;-52
2022/12/25 04:40:12;;;;;;;103.15;40.95;;;7.10;99.90;;;;;;5133353;27;20035;-47
2022/12/25 04:42:38;;;;;;;90.93;38.50;;;7.30;99.90;;;;;;5125206;27;20047;-52
2022/12/25 04:45:03;;;;;;;105.10;39.55;;;7.10;99.90;;;;;;5119573;27;20382;-49
2022/12/25 04:47:29;;;;;;;88.95;39.40;;;7.30;99.90;;;;;;5131713;27;20470;-50
2022/12/25 04:49:55;;;;;;;110.07;40.80;;;7.30;99.90;;;;;;5121209;27;20039;-49
2022/12/25 04:52:20;;;;;;;96.22;39.42;;;7.40;99.90;;;;;;5130734;27;20697;-49
2022/12/25 04:54:46;;;;;;;103.57;40.85;;;7.10;99.90;;;;;;5115431;27;20050;-52
2022/12/25 04:57:12;;;;;;;105.05;40.95;;;7.20;99.90;;;;;;5118771;27;20358;-46
2022/12/25 04:59:37;;;;;;;113.40;44.28;;;7.10;99.90;;;;;;5118972;27;20493;-51
2022/12/25 05:02:03;;;;;;;145.23;48.40;;;7.30;99.90;;;;;;5118372;27;20554;-48
2022/12/25 05:04:28;;;;;;;152.45;50.47;;;7.40;99.90;;;;;;5118473;27;20557;-52
2022/12/25 05:06:54;;;;;;;165.98;53.92;;;7.30;99.90;;;;;;5099771;27;20401;-49
2022/12/25 05:09:20;;;;;;;163.38;51.83;;;7.50;99.90;;;;;;5119081;27;20294;-48
2022/12/25 05:11:46;;;;;;;145.57;50.65;;;7.30;99.90;;;;;;5118770;27;20053;-47
2022/12/25 05:14:11;;;;;;;141.57;52.75;;;7.40;99.90;;;;;;5118161;27;20047;-49
2022/12/25 05:16:37;;;;;;;147.30;53.10;;;7.40;99.90;;;;;;5118549;27;20051;-50
2022/12/25 05:19:03;;;;;;;138.35;54.53;;;7.70;99.90;;;;;;5100305;27;20054;-50
2022/12/25 05:21:28;;;;;;;133.40;52.55;;;7.60;99.90;;;;;;5118585;27;20043;-51
2022/12/25 05:23:54;;;;;;;142.52;52.33;;;7.50;99.90;;;;;;5121080;27;20391;-45
2022/12/25 05:26:23;;;;;;;130.50;51.47;;;7.60;99.90;;;;;;5128525;27;20046;-50
2022/12/25 05:28:49;;;;;;;129.00;49.47;;;7.70;99.90;;;;;;5118126;27;20154;-47
2022/12/25 05:31:14;;;;;;;122.32;49.08;;;7.90;99.90;;;;;;5117955;27;20304;-48
2022/12/25 05:33:40;;;;;;;119.43;47.70;;;7.70;99.90;;;;;;5121203;27;20809;-50
2022/12/25 05:36:08;;;;;;;115.07;47.08;;;7.60;99.90;;;;;;5121221;27;20046;-47
2022/12/25 05:38:34;;;;;;;104.28;44.75;;;7.60;99.90;;;;;;5125406;27;20058;-44
2022/12/25 05:41:00;;;;;;;97.90;44.55;;;7.80;99.90;;;;;;5120657;27;20505;-45
2022/12/25 05:43:26;;;;;;;99.85;45.20;;;7.70;99.90;;;;;;5114107;27;20065;-49
2022/12/25 05:45:52;;;;;;;101.03;43.45;;;8.00;99.90;;;;;;5127368;27;20051;-48
2022/12/25 05:48:18;;;;;;;108.28;44.28;;;7.70;99.90;;;;;;5117548;27;20053;-50
2022/12/25 05:50:43;;;;;;;95.53;42.67;;;8.00;99.90;;;;;;5138142;27;20096;-50
2022/12/25 05:53:12;;;;;;;112.82;44.05;;;7.70;99.90;;;;;;5124818;27;20039;-46
2022/12/25 05:55:42;;;;;;;103.72;45.00;;;7.70;99.90;;;;;;5138617;27;20129;-50
2022/12/25 05:58:09;;;;;;;99.35;43.35;;;7.90;99.90;;;;;;5138253;27;20054;-50
2022/12/25 06:00:36;;;;;;;105.22;41.08;;;8.00;99.90;;;;;;5138419;27;20411;-44
2022/12/25 06:03:02;;;;;;;94.13;42.45;;;8.00;99.90;;;;;;5114224;27;20058;-52
2022/12/25 06:05:27;;;;;;;93.93;40.33;;;7.90;99.90;;;;;;5099425;27;20464;-46
2022/12/25 06:07:53;;;;;;;95.47;40.33;;;7.90;99.90;;;;;;5124301;27;20050;-48
2022/12/25 06:10:20;;;;;;;90.20;41.55;;;7.80;99.90;;;;;;5138677;27;20538;-47
2022/12/25 06:12:45;;;;;;;102.13;42.05;;;8.00;99.90;;;;;;5118110;27;20107;-46
2022/12/25 06:15:11;;;;;;;95.97;40.55;;;7.80;99.90;;;;;;5116663;27;20059;-46
2022/12/25 06:17:37;;;;;;;99.90;42.35;;;7.90;99.90;;;;;;5131587;27;20500;-49
2022/12/25 06:20:03;;;;;;;98.22;40.72;;;7.80;99.90;;;;;;5099681;27;20057;-48
2022/12/25 06:22:30;;;;;;;104.50;42.08;;;7.70;99.90;;;;;;5098838;27;20153;-46
2022/12/25 06:24:56;;;;;;;98.78;40.08;;;8.00;99.90;;;;;;5129644;27;20053;-48
2022/12/25 06:27:23;;;;;;;108.43;40.72;;;7.90;99.90;;;;;;5137453;27;20046;-49
2022/12/25 06:29:48;;;;;;;97.40;39.15;;;7.70;99.90;;;;;;5137632;27;20520;-51
2022/12/25 06:32:14;;;;;;;104.07;39.67;;;7.90;99.90;;;;;;5118743;27;20050;-45
2022/12/25 06:34:39;;;;;;;93.88;39.65;;;7.70;99.90;;;;;;5116733;27;20051;-50
2022/12/25 06:37:05;;;;;;;95.88;40.28;;;7.90;99.90;;;;;;5137051;27;20515;-44
2022/12/25 06:39:31;;;;;;;93.43;40.50;;;7.80;99.90;;;;;;5125636;27;20039;-53
2022/12/25 06:41:57;;;;;;;95.88;39.38;;;7.70;99.90;;;;;;5135704;27;20047;-50
2022/12/25 06:44:22;;;;;;;110.63;40.08;;;7.70;99.90;;;;;;5115960;27;20054;-51
2022/12/25 06:46:48;;;;;;;96.32;38.80;;;7.80;99.90;;;;;;5117711;27;20516;-50
2022/12/25 06:49:14;;;;;;;101.53;40.60;;;7.70;99.90;;;;;;5129922;27;20047;-46
2022/12/25 06:51:39;;;;;;;90.22;38.97;;;7.90;99.90;;;;;;5105232;27;20051;-46
2022/12/25 06:54:05;;;;;;;95.00;38.97;;;7.70;99.90;;;;;;5137388;27;20416;-49
2022/12/25 06:56:32;;;;;;;89.00;38.58;;;7.70;99.90;;;;;;5105503;27;20157;-48
2022/12/25 06:59:04;;;;;;;96.82;38.97;;;7.80;99.90;;;;;;5118912;27;20490;-49
2022/12/25 07:01:52;;;;;;;104.15;39.60;;;7.90;99.90;;;;;;5098459;27;20489;-45
2022/12/25 07:04:30;;;;;;;95.93;38.05;;;7.60;99.90;;;;;;5133480;27;20046;-47
2022/12/25 07:06:57;;;;;;;89.10;39.72;;;7.70;99.90;;;;;;5107790;27;20101;-51
2022/12/25 07:09:23;;;;;;;90.90;37.47;;;7.70;99.90;;;;;;5116384;27;20043;-50
2022/12/25 07:11:49;;;;;;;99.57;38.40;;;7.90;99.90;;;;;;5116267;27;20386;-48
2022/12/25 07:14:20;;;;;;;92.95;38.95;;;7.70;99.90;;;;;;5129772;27;20095;-45
2022/12/25 07:16:47;;;;;;;96.25;37.88;;;7.60;99.90;;;;;;5098220;27;20256;-49
2022/12/25 07:19:13;;;;;;;93.03;36.53;;;7.90;99.90;;;;;;5116438;27;20043;-45
2022/12/25 07:21:39;;;;;;;99.53;38.63;;;7.80;99.90;;;;;;5098130;27;20108;-49
2022/12/25 07:24:05;;;;;;;87.60;36.08;;;7.60;99.90;;;;;;5134749;27;20050;-45
2022/12/25 07:26:30;;;;;;;83.57;34.72;;;7.70;99.90;;;;;;5125757;27;20409;-45
2022/12/25 07:28:56;;;;;;;76.90;35.22;;;7.90;99.90;;;;;;5097951;27;20043;-51
2022/12/25 07:31:22;;;;;;;80.45;35.45;;;7.70;99.90;;;;;;5115944;27;20043;-47
2022/12/25 07:33:47;;;;;;;85.15;33.88;;;7.90;99.90;;;;;;5115964;27;20486;-46
2022/12/25 07:36:14;;;;;;;77.97;35.20;;;7.60;99.90;;;;;;5116211;27;20058;-49
2022/12/25 07:38:46;;;;;;;77.32;34.15;;;7.80;99.90;;;;;;5086581;27;20533;-53
2022/12/25 07:41:12;;;;;;;75.23;33.23;;;7.80;99.90;;;;;;5137151;27;20055;-46
2022/12/25 07:43:38;;;;;;;72.80;31.42;;;7.70;99.90;;;;;;5129836;27;20479;-50
2022/12/25 07:46:05;;;;;;;73.80;32.50;;;7.70;99.90;;;;;;5117977;27;20061;-51
2022/12/25 07:48:31;;;;;;;74.00;31.45;;;8.00;99.90;;;;;;5117797;27;20896;-46
2022/12/25 07:51:03;;;;;;;61.88;29.00;;;8.00;99.90;;;;;;5104027;27;20058;-48
2022/12/25 07:53:29;;;;;;;68.43;31.63;;;7.90;99.90;;;;;;5122655;27;20039;-49
2022/12/25 07:56:01;;;;;;;73.95;30.67;;;7.90;99.90;;;;;;5137110;27;20378;-49
2022/12/25 07:58:28;;;;;;;65.20;29.30;;;7.80;99.90;;;;;;5128816;27;20058;-53
2022/12/25 08:01:00;;;;;;;65.07;29.00;;;8.00;99.90;;;;;;5115377;27;20346;-46
2022/12/25 08:03:25;;;;;;;58.53;29.10;;;7.80;99.90;;;;;;5115250;27;20045;-47
2022/12/25 08:05:51;;;;;;;60.95;29.50;;;8.00;99.90;;;;;;5116184;27;20442;-46
2022/12/25 08:08:16;;;;;;;57.53;26.95;;;8.10;99.90;;;;;;5126226;27;20523;-46
2022/12/25 08:10:46;;;;;;;51.10;26.83;;;7.80;99.90;;;;;;5132820;27;20043;-47
2022/12/25 08:13:12;;;;;;;57.05;28.10;;;7.80;99.90;;;;;;5116026;27;20055;-45
2022/12/25 08:15:38;;;;;;;55.85;26.17;;;8.10;99.90;;;;;;5118621;27;20047;-50
2022/12/25 08:18:04;;;;;;;60.08;26.00;;;7.80;99.90;;;;;;5136353;27;20047;-50
2022/12/25 08:20:30;;;;;;;45.92;25.95;;;7.90;99.90;;;;;;5121771;27;20191;-46
2022/12/25 08:22:55;;;;;;;52.08;25.58;;;7.90;99.90;;;;;;5136498;27;20074;-49
2022/12/25 08:25:21;;;;;;;49.63;24.35;;;8.20;99.90;;;;;;5112691;27;20139;-46
2022/12/25 08:27:47;;;;;;;45.45;22.20;;;7.90;99.90;;;;;;5124582;27;20121;-47
2022/12/25 08:30:12;;;;;;;44.58;22.85;;;7.90;99.90;;;;;;5102311;27;20461;-45
2022/12/25 08:32:38;;;;;;;43.25;23.27;;;7.90;99.90;;;;;;5135860;27;20512;-48
2022/12/25 08:35:04;;;;;;;49.38;23.40;;;8.00;99.90;;;;;;5097402;27;20055;-49
2022/12/25 08:37:30;;;;;;;42.95;23.02;;;7.90;99.90;;;;;;5107702;27;20042;-50
2022/12/25 08:39:55;;;;;;;46.53;23.70;;;7.90;99.90;;;;;;5119830;27;20122;-44
2022/12/25 08:42:21;;;;;;;44.50;23.92;;;8.20;99.90;;;;;;5118534;27;20464;-50
2022/12/25 08:44:47;;;;;;;40.35;22.13;;;8.20;99.90;;;;;;5135015;27;20544;-45
2022/12/25 08:47:12;;;;;;;47.70;23.38;;;8.20;99.90;;;;;;5126492;27;20074;-46
2022/12/25 08:49:38;;;;;;;44.10;21.83;;;8.20;99.90;;;;;;5117384;27;20039;-50
2022/12/25 08:52:04;;;;;;;39.60;21.48;;;8.20;99.90;;;;;;5135975;27;20043;-47
2022/12/25 08:54:32;;;;;;;44.80;22.23;;;7.90;99.90;;;;;;5135735;27;20118;-45
2022/12/25 08:56:58;;;;;;;46.53;21.98;;;8.20;99.90;;;;;;5126135;27;20111;-46
2022/12/25 08:59:24;;;;;;;42.63;21.67;;;8.10;99.90;;;;;;5129093;27;20392;-52
2022/12/25 09:01:49;;;;;;;41.20;21.60;;;8.20;99.90;;;;;;5124779;27;20043;-50
2022/12/25 09:04:15;;;;;;;38.55;21.02;;;8.20;99.90;;;;;;5131849;27;20412;-50
2022/12/25 09:06:41;;;;;;;35.70;20.05;;;8.20;99.90;;;;;;5099413;27;20066;-46
2022/12/25 09:09:06;;;;;;;40.47;20.95;;;7.90;99.90;;;;;;5118828;27;20051;-47
2022/12/25 09:11:32;;;;;;;34.67;19.65;;;8.20;99.90;;;;;;5128825;27;20050;-50
2022/12/25 09:13:58;;;;;;;35.50;20.63;;;8.20;99.90;;;;;;5125043;27;20047;-46
2022/12/25 09:16:24;;;;;;;37.88;21.60;;;8.20;99.90;;;;;;5138767;27;20565;-48
2022/12/25 09:18:50;;;;;;;37.97;21.17;;;8.20;99.90;;;;;;5106421;27;20388;-50
2022/12/25 09:21:16;;;;;;;40.22;20.73;;;8.20;99.90;;;;;;5138981;27;20050;-51
2022/12/25 09:23:42;;;;;;;33.22;20.38;;;8.00;99.90;;;;;;5138384;27;20052;-45
2022/12/25 09:26:11;;;;;;;39.80;21.73;;;8.10;99.90;;;;;;5130447;27;20047;-45
2022/12/25 09:28:37;;;;;;;34.67;21.27;;;8.30;99.90;;;;;;5131865;27;20043;-51
2022/12/25 09:31:03;;;;;;;35.15;20.15;;;8.20;99.90;;;;;;5120240;27;20103;-50
2022/12/25 09:33:29;;;;;;;30.35;19.65;;;8.10;99.90;;;;;;5138957;27;20050;-49
2022/12/25 09:35:56;;;;;;;33.67;19.50;;;8.20;99.90;;;;;;5129948;27;20058;-46
2022/12/25 09:38:23;;;;;;;30.00;18.77;;;8.10;99.90;;;;;;5099310;27;20784;-46
2022/12/25 09:41:18;;;;;;;29.17;17.75;;;8.40;99.90;;;;;;5118122;27;20035;-48
2022/12/25 09:43:55;;;;;;;32.38;18.80;;;8.30;99.90;;;;;;5126200;27;20055;-49
2022/12/25 09:46:25;;;;;;;26.33;16.95;;;8.20;99.90;;;;;;5118075;27;20089;-45
2022/12/25 09:49:17;;;;;;;28.35;17.83;;;8.20;99.90;;;;;;5118482;27;20047;-48
2022/12/25 09:51:47;;;;;;;38.95;18.73;;;8.40;99.90;;;;;;5117196;27;20130;-53
2022/12/25 09:54:21;;;;;;;27.77;17.67;;;8.20;99.90;;;;;;5117681;27;20050;-45
2022/12/25 09:56:47;;;;;;;28.58;18.63;;;8.40;99.90;;;;;;5117941;27;20042;-50
2022/12/25 09:59:28;;;;;;;28.52;17.50;;;8.20;99.90;;;;;;5118209;27;20050;-50
2022/12/25 10:02:02;;;;;;;24.73;17.00;;;8.40;99.90;;;;;;5117387;27;20115;-47
2022/12/25 10:05:22;;;;;;;30.52;17.60;;;8.50;99.90;;;;;;5122348;27;20094;-52
2022/12/25 10:07:53;;;;;;;22.80;16.95;;;8.50;99.90;;;;;;5014500;28;20100;-47
2022/12/25 10:10:27;;;;;;;26.13;16.95;;;8.60;99.90;;;;;;5026078;28;20200;-50
2022/12/25 10:13:23;;;;;;;22.05;15.73;;;8.40;99.90;;;;;;5000003;28;20319;-49
2022/12/25 10:16:14;;;;;;;23.40;15.40;;;8.40;99.90;;;;;;5018803;28;20780;-48
2022/12/25 10:19:11;;;;;;;20.92;15.13;;;8.60;99.90;;;;;;5017350;28;20136;-48
2022/12/25 10:21:38;;;;;;;26.17;15.15;;;8.70;99.90;;;;;;5009595;28;20110;-47
2022/12/25 10:24:29;;;;;;;20.85;14.55;;;8.50;99.90;;;;;;5025086;28;20063;-51
2022/12/25 10:26:55;;;;;;;22.92;14.88;;;8.70;99.90;;;;;;5006053;28;20052;-53
2022/12/25 10:29:21;;;;;;;24.95;15.60;;;8.50;99.90;;;;;;5014214;28;20053;-47
2022/12/25 10:31:53;;;;;;;17.88;14.00;;;8.60;99.90;;;;;;5008238;28;20048;-53
2022/12/25 10:34:19;;;;;;;22.35;14.07;;;8.60;99.90;;;;;;5019251;28;20137;-49
2022/12/25 10:36:45;;;;;;;21.80;14.55;;;8.40;99.90;;;;;;5025054;28;21324;-50
2022/12/25 10:39:23;;;;;;;22.50;14.68;;;8.50;99.90;;;;;;5019851;28;20052;-51
2022/12/25 10:42:12;;;;;;;23.25;14.55;;;8.70;99.90;;;;;;5080935;27;20517;-46
2022/12/25 10:44:38;;;;;;;22.73;14.05;;;8.70;99.90;;;;;;5113599;27;20201;-52
2022/12/25 10:47:04;;;;;;;21.92;15.82;;;8.50;99.90;;;;;;5127686;27;20164;-51
2022/12/25 10:49:38;;;;;;;26.85;17.48;;;8.50;99.90;;;;;;5103634;27;20538;-49
2022/12/25 10:52:18;;;;;;;24.77;15.32;;;8.70;99.90;;;;;;5115472;27;20051;-49
2022/12/25 10:54:44;;;;;;;21.48;15.50;;;8.70;99.90;;;;;;5098687;27;20152;-48
2022/12/25 10:57:14;;;;;;;20.98;15.63;;;8.50;99.90;;;;;;5116274;27;20675;-48
2022/12/25 10:59:48;;;;;;;24.60;14.90;;;8.80;99.90;;;;;;5136128;27;20549;-45
2022/12/25 11:02:22;;;;;;;21.67;14.32;;;8.60;99.90;;;;;;5124313;27;20600;-48
2022/12/25 11:04:50;;;;;;;25.92;14.38;;;8.60;99.90;;;;;;5115083;27;20167;-45
2022/12/25 11:07:18;;;;;;;20.50;13.60;;;8.60;99.90;;;;;;5116573;27;20099;-47
2022/12/25 11:09:59;;;;;;;20.95;12.95;;;8.80;99.90;;;;;;5116819;27;20039;-49
2022/12/25 11:12:33;;;;;;;23.70;14.90;;;8.90;99.90;;;;;;5115210;27;20385;-50
2022/12/25 11:15:03;;;;;;;20.90;14.73;;;8.80;99.90;;;;;;5096960;27;20147;-50
2022/12/25 11:17:29;;;;;;;22.92;14.35;;;8.60;99.90;;;;;;5123373;27;20046;-48
2022/12/25 11:19:58;;;;;;;21.83;14.02;;;8.80;99.90;;;;;;5121837;27;20547;-50
2022/12/25 11:22:24;;;;;;;23.92;15.25;;;8.60;99.90;;;;;;5129193;27;20046;-50
2022/12/25 11:24:50;;;;;;;21.20;14.30;;;8.70;99.90;;;;;;5130581;27;20054;-49
2022/12/25 11:27:27;;;;;;;22.05;13.95;;;8.80;99.90;;;;;;5129660;27;20035;-48
2022/12/25 11:29:58;;;;;;;22.35;14.85;;;8.80;99.90;;;;;;5112196;27;20082;-50
2022/12/25 11:32:30;;;;;;;23.55;14.65;;;8.50;99.90;;;;;;5114560;27;20050;-47
2022/12/25 11:34:57;;;;;;;18.17;12.60;;;8.50;99.90;;;;;;5109700;27;20047;-47
2022/12/25 11:37:29;;;;;;;23.20;13.25;;;8.60;99.90;;;;;;5122059;27;20276;-44
2022/12/25 11:39:55;;;;;;;22.35;13.38;;;8.70;99.90;;;;;;5130364;27;20070;-49
2022/12/25 11:42:26;;;;;;;22.70;14.50;;;8.50;99.90;;;;;;5098784;27;20138;-44
2022/12/25 11:45:00;;;;;;;22.67;14.38;;;8.60;99.90;;;;;;5114274;27;20253;-44
2022/12/25 11:47:35;;;;;;;24.63;16.13;;;8.50;99.90;;;;;;5115343;27;20047;-44
2022/12/25 11:50:19;;;;;;;24.38;15.27;;;8.40;99.90;;;;;;5132428;27;20043;-53
2022/12/25 11:52:47;;;;;;;25.38;15.60;;;8.50;99.90;;;;;;5132394;27;20047;-48
2022/12/25 11:55:22;;;;;;;23.10;14.65;;;8.40;99.90;;;;;;5126012;27;20043;-49
2022/12/25 11:57:53;;;;;;;23.92;14.38;;;8.60;99.90;;;;;;5129015;27;20049;-45
2022/12/25 12:00:20;;;;;;;25.80;15.90;;;8.60;99.90;;;;;;5131501;27;20478;-49
2022/12/25 12:02:53;;;;;;;25.45;15.30;;;8.60;99.90;;;;;;5126550;27;20054;-46
2022/12/25 12:05:27;;;;;;;22.95;14.55;;;8.40;99.90;;;;;;5122081;27;20477;-49
2022/12/25 12:07:59;;;;;;;27.50;16.27;;;8.30;99.90;;;;;;5103267;27;20046;-45
2022/12/25 12:10:37;;;;;;;25.98;15.43;;;8.40;99.90;;;;;;5122960;27;20049;-48
2022/12/25 12:13:29;;;;;;;25.40;14.20;;;8.40;99.90;;;;;;5120542;27;20039;-46
2022/12/25 12:15:57;;;;;;;27.27;15.20;;;8.40;99.90;;;;;;5120227;27;20057;-48
2022/12/25 12:18:31;;;;;;;27.85;14.13;;;8.40;99.90;;;;;;5122100;27;20119;-49
2022/12/25 12:21:03;;;;;;;26.75;15.30;;;8.50;99.90;;;;;;5120303;27;20039;-46
2022/12/25 12:23:33;;;;;;;25.48;14.82;;;8.60;99.90;;;;;;5102506;27;20382;-47
2022/12/25 12:25:59;;;;;;;26.73;14.68;;;8.40;99.90;;;;;;5119446;27;20048;-48
2022/12/25 12:28:37;;;;;;;22.95;14.57;;;8.60;99.90;;;;;;5117935;27;20058;-50
2022/12/25 12:31:05;;;;;;;26.70;15.55;;;8.60;99.90;;;;;;5118169;27;20046;-48
2022/12/25 12:33:47;;;;;;;22.50;15.43;;;8.40;99.90;;;;;;5122485;27;20213;-47
2022/12/25 12:36:14;;;;;;;30.02;14.63;;;8.50;99.90;;;;;;5113780;27;20134;-45
2022/12/25 12:38:42;;;;;;;25.70;14.88;;;8.70;99.90;;;;;;5114546;27;20436;-48
2022/12/25 12:41:10;;;;;;;26.52;15.90;;;8.60;99.90;;;;;;5131106;27;20047;-49
2022/12/25 12:43:38;;;;;;;29.35;16.05;;;8.50;99.90;;;;;;5122312;27;20055;-45
2022/12/25 12:46:15;;;;;;;27.98;16.50;;;8.60;99.90;;;;;;5131520;27;20063;-45
2022/12/25 12:48:44;;;;;;;28.85;17.55;;;8.60;99.90;;;;;;5122521;27;20431;-45
2022/12/25 12:51:12;;;;;;;30.17;17.40;;;8.70;99.90;;;;;;5128283;27;20553;-46
2022/12/25 12:53:41;;;;;;;28.35;15.85;;;8.60;99.90;;;;;;5136501;27;20085;-47
2022/12/25 12:56:18;;;;;;;24.30;16.00;;;8.80;99.90;;;;;;5124324;27;20049;-49
2022/12/25 12:58:49;;;;;;;28.40;16.33;;;8.70;99.90;;;;;;5097257;27;20046;-46
2022/12/25 13:01:46;;;;;;;32.00;18.85;;;8.80;99.90;;;;;;5130454;27;20458;-50
2022/12/25 13:04:18;;;;;;;29.77;16.73;;;8.70;99.90;;;;;;5118566;27;20062;-47
2022/12/25 13:07:30;;;;;;;35.47;17.20;;;8.50;99.90;;;;;;5122977;27;20148;-44
2022/12/25 13:10:07;;;;;;;28.33;16.73;;;8.80;99.90;;;;;;5015785;28;20551;-46
2022/12/25 13:12:33;;;;;;;27.85;16.48;;;8.70;99.90;;;;;;5015021;28;20538;-50
2022/12/25 13:14:59;;;;;;;29.70;17.33;;;8.60;99.90;;;;;;5021532;28;20045;-45
2022/12/25 13:17:26;;;;;;;23.80;15.32;;;8.80;99.90;;;;;;5018495;28;20102;-51
2022/12/25 13:19:56;;;;;;;28.33;15.50;;;8.80;99.90;;;;;;5015099;28;20084;-50
2022/12/25 13:22:30;;;;;;;31.27;16.85;;;8.50;99.90;;;;;;5014839;28;20606;-50
2022/12/25 13:24:59;;;;;;;26.45;15.95;;;8.80;99.90;;;;;;5017606;28;20503;-45
2022/12/25 13:27:30;;;;;;;30.17;14.85;;;8.70;99.90;;;;;;4998907;28;20081;-48
2022/12/25 13:29:58;;;;;;;25.02;15.02;;;8.40;99.90;;;;;;5027920;28;20139;-46
2022/12/25 13:32:27;;;;;;;25.50;14.82;;;8.70;99.90;;;;;;5015953;28;20610;-44
2022/12/25 13:34:53;;;;;;;24.55;15.00;;;8.70;99.90;;;;;;5032399;28;20080;-48
2022/12/25 13:37:25;;;;;;;20.77;13.95;;;8.60;99.90;;;;;;5016239;28;20077;-47
2022/12/25 13:39:57;;;;;;;21.98;14.73;;;8.50;99.90;;;;;;5018238;28;20064;-46
2022/12/25 13:42:35;;;;;;;26.30;14.07;;;8.60;99.90;;;;;;5017477;28;20186;-46
2022/12/25 13:45:05;;;;;;;24.33;14.15;;;8.50;99.90;;;;;;5044415;27;20054;-45
2022/12/25 13:47:36;;;;;;;21.38;13.18;;;8.50;99.90;;;;;;5083465;27;20131;-47
2022/12/25 13:50:31;;;;;;;21.05;14.63;;;8.70;99.90;;;;;;5117767;27;20661;-50
2022/12/25 13:53:11;;;;;;;23.35;14.73;;;8.40;99.90;;;;;;5115462;27;20058;-48
2022/12/25 13:55:37;;;;;;;22.55;14.38;;;8.70;99.90;;;;;;5117946;27;20050;-46
2022/12/25 13:58:06;;;;;;;28.83;16.55;;;8.60;99.90;;;;;;5099797;27;20047;-51
2022/12/25 14:00:44;;;;;;;23.27;15.35;;;8.60;99.90;;;;;;5118151;27;20047;-46
2022/12/25 14:03:38;;;;;;;28.60;16.85;;;8.30;99.90;;;;;;5117082;27;20051;-49
2022/12/25 14:06:26;;;;;;;23.85;16.52;;;8.40;99.90;;;;;;5122962;27;20491;-44
2022/12/25 14:08:53;;;;;;;22.17;16.35;;;8.70;99.90;;;;;;5123534;27;20480;-47
2022/12/25 14:11:22;;;;;;;25.08;17.63;;;8.40;99.90;;;;;;5110827;27;20133;-46
2022/12/25 14:13:51;;;;;;;21.63;16.20;;;8.50;99.90;;;;;;5117309;27;20053;-46
2022/12/25 14:16:19;;;;;;;23.83;17.73;;;8.40;99.90;;;;;;5118468;27;20464;-48
2022/12/25 14:18:56;;;;;;;29.92;18.88;;;8.40;99.90;;;;;;5117432;27;20450;-50
2022/12/25 14:21:31;;;;;;;26.25;19.15;;;8.60;99.90;;;;;;5117066;27;20090;-49
2022/12/25 14:23:58;;;;;;;26.08;18.30;;;8.40;99.90;;;;;;5120510;27;20479;-50
2022/12/25 14:26:30;;;;;;;25.90;19.25;;;8.40;99.90;;;;;;5127606;27;20043;-47
2022/12/25 14:29:04;;;;;;;27.65;19.27;;;8.50;99.90;;;;;;5120472;27;20042;-49